sensor_id;sensor_type;location;lat;lon;timestamp;P1;durP1;ratioP1;P2;durP2;ratioP2
43114;SDS011;28727;50.068;14.452;2022-11-15T00:02:43;61.88;;;34.53;;
43114;SDS011;28727;50.068;14.452;2022-11-15T00:05:34;63.30;;;35.92;;
43114;SDS011;28727;50.068;14.452;2022-11-15T00:08:28;65.43;;;36.17;;
43114;SDS011;28727;50.068;14.452;2022-11-15T00:11:19;63.47;;;34.88;;
43114;SDS011;28727;50.068;14.452;2022-11-15T00:14:10;64.25;;;36.25;;
43114;SDS011;28727;50.068;14.452;2022-11-15T00:17:00;71.90;;;38.42;;
43114;SDS011;28727;50.068;14.452;2022-11-15T00:19:50;66.57;;;36.25;;
43114;SDS011;28727;50.068;14.452;2022-11-15T00:22:40;68.57;;;37.28;;
43114;SDS011;28727;50.068;14.452;2022-11-15T00:25:33;65.85;;;35.47;;
43114;SDS011;28727;50.068;14.452;2022-11-15T00:28:24;64.13;;;35.30;;
43114;SDS011;28727;50.068;14.452;2022-11-15T00:31:14;63.92;;;35.83;;
43114;SDS011;28727;50.068;14.452;2022-11-15T00:34:05;65.07;;;35.78;;
43114;SDS011;28727;50.068;14.452;2022-11-15T00:36:55;70.32;;;36.70;;
43114;SDS011;28727;50.068;14.452;2022-11-15T00:39:45;66.28;;;36.15;;
43114;SDS011;28727;50.068;14.452;2022-11-15T00:42:35;66.53;;;35.38;;
43114;SDS011;28727;50.068;14.452;2022-11-15T00:45:25;58.80;;;33.17;;
43114;SDS011;28727;50.068;14.452;2022-11-15T00:48:17;52.45;;;30.85;;
43114;SDS011;28727;50.068;14.452;2022-11-15T00:51:08;57.85;;;32.63;;
43114;SDS011;28727;50.068;14.452;2022-11-15T00:53:58;55.15;;;30.83;;
43114;SDS011;28727;50.068;14.452;2022-11-15T00:56:49;52.08;;;30.08;;
43114;SDS011;28727;50.068;14.452;2022-11-15T00:59:39;52.20;;;29.67;;
43114;SDS011;28727;50.068;14.452;2022-11-15T01:02:30;94.78;;;30.63;;
43114;SDS011;28727;50.068;14.452;2022-11-15T01:05:22;99.57;;;32.42;;
43114;SDS011;28727;50.068;14.452;2022-11-15T01:08:13;82.15;;;33.00;;
43114;SDS011;28727;50.068;14.452;2022-11-15T01:11:08;95.90;;;33.58;;
43114;SDS011;28727;50.068;14.452;2022-11-15T01:13:59;91.53;;;32.70;;
43114;SDS011;28727;50.068;14.452;2022-11-15T01:16:49;141.98;;;34.45;;
43114;SDS011;28727;50.068;14.452;2022-11-15T01:19:39;65.75;;;31.83;;
43114;SDS011;28727;50.068;14.452;2022-11-15T01:22:30;74.53;;;33.28;;
43114;SDS011;28727;50.068;14.452;2022-11-15T01:25:22;69.82;;;31.48;;
43114;SDS011;28727;50.068;14.452;2022-11-15T01:28:13;96.63;;;31.25;;
43114;SDS011;28727;50.068;14.452;2022-11-15T01:31:05;86.70;;;29.35;;
43114;SDS011;28727;50.068;14.452;2022-11-15T01:36:49;64.68;;;30.10;;
43114;SDS011;28727;50.068;14.452;2022-11-15T01:39:39;68.53;;;28.20;;
43114;SDS011;28727;50.068;14.452;2022-11-15T01:42:29;59.60;;;29.00;;
43114;SDS011;28727;50.068;14.452;2022-11-15T01:45:22;61.30;;;27.80;;
43114;SDS011;28727;50.068;14.452;2022-11-15T01:48:13;78.30;;;29.38;;
43114;SDS011;28727;50.068;14.452;2022-11-15T01:51:05;78.45;;;29.90;;
43114;SDS011;28727;50.068;14.452;2022-11-15T01:54:00;66.72;;;28.48;;
43114;SDS011;28727;50.068;14.452;2022-11-15T01:57:15;57.35;;;28.50;;
43114;SDS011;28727;50.068;14.452;2022-11-15T02:00:06;72.22;;;29.63;;
43114;SDS011;28727;50.068;14.452;2022-11-15T02:02:56;62.70;;;29.23;;
43114;SDS011;28727;50.068;14.452;2022-11-15T02:05:47;62.97;;;27.80;;
43114;SDS011;28727;50.068;14.452;2022-11-15T02:08:37;63.70;;;29.15;;
43114;SDS011;28727;50.068;14.452;2022-11-15T02:11:27;70.53;;;30.65;;
43114;SDS011;28727;50.068;14.452;2022-11-15T02:14:18;65.13;;;28.65;;
43114;SDS011;28727;50.068;14.452;2022-11-15T02:32:40;57.38;;;27.50;;
43114;SDS011;28727;50.068;14.452;2022-11-15T02:38:35;76.00;;;27.58;;
43114;SDS011;28727;50.068;14.452;2022-11-15T02:41:44;54.95;;;25.77;;
43114;SDS011;28727;50.068;14.452;2022-11-15T02:47:37;65.82;;;27.08;;
43114;SDS011;28727;50.068;14.452;2022-11-15T02:50:33;58.70;;;25.60;;
43114;SDS011;28727;50.068;14.452;2022-11-15T02:53:24;66.60;;;26.52;;
43114;SDS011;28727;50.068;14.452;2022-11-15T02:56:15;63.65;;;25.23;;
43114;SDS011;28727;50.068;14.452;2022-11-15T02:59:16;67.32;;;27.02;;
43114;SDS011;28727;50.068;14.452;2022-11-15T03:02:26;58.33;;;25.05;;
43114;SDS011;28727;50.068;14.452;2022-11-15T03:12:14;61.33;;;26.00;;
43114;SDS011;28727;50.068;14.452;2022-11-15T03:15:09;61.95;;;28.05;;
43114;SDS011;28727;50.068;14.452;2022-11-15T03:18:12;70.43;;;25.92;;
43114;SDS011;28727;50.068;14.452;2022-11-15T03:21:11;57.00;;;25.95;;
43114;SDS011;28727;50.068;14.452;2022-11-15T03:24:08;122.63;;;27.40;;
43114;SDS011;28727;50.068;14.452;2022-11-15T03:26:58;68.53;;;27.67;;
43114;SDS011;28727;50.068;14.452;2022-11-15T03:29:56;129.88;;;28.90;;
43114;SDS011;28727;50.068;14.452;2022-11-15T03:32:51;69.43;;;26.15;;
43114;SDS011;28727;50.068;14.452;2022-11-15T03:35:45;126.53;;;28.45;;
43114;SDS011;28727;50.068;14.452;2022-11-15T03:38:37;169.70;;;28.98;;
43114;SDS011;28727;50.068;14.452;2022-11-15T03:41:30;119.85;;;25.05;;
43114;SDS011;28727;50.068;14.452;2022-11-15T03:48:16;108.68;;;25.30;;
43114;SDS011;28727;50.068;14.452;2022-11-15T03:50:54;178.73;;;28.15;;
43114;SDS011;28727;50.068;14.452;2022-11-15T03:53:45;89.82;;;23.67;;
43114;SDS011;28727;50.068;14.452;2022-11-15T03:56:36;104.68;;;23.90;;
43114;SDS011;28727;50.068;14.452;2022-11-15T03:59:26;92.65;;;24.88;;
43114;SDS011;28727;50.068;14.452;2022-11-15T04:02:16;101.55;;;24.38;;
43114;SDS011;28727;50.068;14.452;2022-11-15T04:05:09;100.57;;;24.73;;
43114;SDS011;28727;50.068;14.452;2022-11-15T04:08:00;60.05;;;22.58;;
43114;SDS011;28727;50.068;14.452;2022-11-15T04:10:50;126.80;;;24.75;;
43114;SDS011;28727;50.068;14.452;2022-11-15T04:13:41;73.55;;;22.85;;
43114;SDS011;28727;50.068;14.452;2022-11-15T04:16:31;91.10;;;23.08;;
43114;SDS011;28727;50.068;14.452;2022-11-15T04:19:21;75.65;;;21.55;;
43114;SDS011;28727;50.068;14.452;2022-11-15T04:22:30;63.90;;;22.90;;
43114;SDS011;28727;50.068;14.452;2022-11-15T04:25:39;78.35;;;19.88;;
43114;SDS011;28727;50.068;14.452;2022-11-15T04:28:29;98.68;;;24.45;;
43114;SDS011;28727;50.068;14.452;2022-11-15T04:31:19;76.95;;;23.98;;
43114;SDS011;28727;50.068;14.452;2022-11-15T04:34:09;74.32;;;22.65;;
43114;SDS011;28727;50.068;14.452;2022-11-15T04:37:01;66.80;;;22.27;;
43114;SDS011;28727;50.068;14.452;2022-11-15T04:40:04;85.60;;;22.38;;
43114;SDS011;28727;50.068;14.452;2022-11-15T04:42:55;88.85;;;21.83;;
43114;SDS011;28727;50.068;14.452;2022-11-15T04:45:52;65.63;;;21.63;;
43114;SDS011;28727;50.068;14.452;2022-11-15T04:48:42;56.47;;;21.90;;
43114;SDS011;28727;50.068;14.452;2022-11-15T04:51:33;52.78;;;21.23;;
43114;SDS011;28727;50.068;14.452;2022-11-15T04:54:23;61.35;;;20.65;;
43114;SDS011;28727;50.068;14.452;2022-11-15T04:57:14;58.22;;;20.60;;
43114;SDS011;28727;50.068;14.452;2022-11-15T05:00:05;53.88;;;22.48;;
43114;SDS011;28727;50.068;14.452;2022-11-15T05:02:57;64.22;;;19.33;;
43114;SDS011;28727;50.068;14.452;2022-11-15T05:06:06;69.88;;;19.80;;
43114;SDS011;28727;50.068;14.452;2022-11-15T05:08:57;75.57;;;18.10;;
43114;SDS011;28727;50.068;14.452;2022-11-15T05:11:47;44.17;;;18.38;;
43114;SDS011;28727;50.068;14.452;2022-11-15T05:14:37;43.67;;;17.92;;
43114;SDS011;28727;50.068;14.452;2022-11-15T05:17:28;56.47;;;19.83;;
43114;SDS011;28727;50.068;14.452;2022-11-15T05:20:21;75.88;;;18.77;;
43114;SDS011;28727;50.068;14.452;2022-11-15T05:23:11;38.10;;;17.35;;
43114;SDS011;28727;50.068;14.452;2022-11-15T05:26:02;78.53;;;20.65;;
43114;SDS011;28727;50.068;14.452;2022-11-15T05:28:58;105.20;;;20.95;;
43114;SDS011;28727;50.068;14.452;2022-11-15T05:31:49;49.17;;;18.10;;
43114;SDS011;28727;50.068;14.452;2022-11-15T05:34:39;135.40;;;20.30;;
43114;SDS011;28727;50.068;14.452;2022-11-15T05:37:29;57.47;;;18.95;;
43114;SDS011;28727;50.068;14.452;2022-11-15T05:40:20;45.15;;;17.23;;
43114;SDS011;28727;50.068;14.452;2022-11-15T05:43:10;46.38;;;17.52;;
43114;SDS011;28727;50.068;14.452;2022-11-15T05:46:00;39.65;;;17.65;;
43114;SDS011;28727;50.068;14.452;2022-11-15T05:48:54;42.72;;;15.95;;
43114;SDS011;28727;50.068;14.452;2022-11-15T05:51:46;34.80;;;16.20;;
43114;SDS011;28727;50.068;14.452;2022-11-15T05:54:43;68.17;;;19.97;;
43114;SDS011;28727;50.068;14.452;2022-11-15T05:57:34;38.20;;;16.85;;
43114;SDS011;28727;50.068;14.452;2022-11-15T06:00:24;49.70;;;17.70;;
43114;SDS011;28727;50.068;14.452;2022-11-15T06:03:14;41.10;;;17.02;;
43114;SDS011;28727;50.068;14.452;2022-11-15T06:06:05;49.08;;;17.52;;
43114;SDS011;28727;50.068;14.452;2022-11-15T06:09:02;41.17;;;17.27;;
43114;SDS011;28727;50.068;14.452;2022-11-15T06:11:52;33.10;;;15.45;;
43114;SDS011;28727;50.068;14.452;2022-11-15T06:14:43;36.03;;;15.98;;
43114;SDS011;28727;50.068;14.452;2022-11-15T06:17:33;44.35;;;17.58;;
43114;SDS011;28727;50.068;14.452;2022-11-15T06:20:26;35.72;;;16.75;;
43114;SDS011;28727;50.068;14.452;2022-11-15T06:23:18;34.28;;;15.55;;
43114;SDS011;28727;50.068;14.452;2022-11-15T06:26:08;38.25;;;16.95;;
43114;SDS011;28727;50.068;14.452;2022-11-15T06:28:58;36.70;;;15.98;;
43114;SDS011;28727;50.068;14.452;2022-11-15T06:31:49;32.92;;;14.82;;
43114;SDS011;28727;50.068;14.452;2022-11-15T06:34:39;30.70;;;15.60;;
43114;SDS011;28727;50.068;14.452;2022-11-15T06:37:33;33.42;;;16.38;;
43114;SDS011;28727;50.068;14.452;2022-11-15T06:40:23;32.25;;;15.65;;
43114;SDS011;28727;50.068;14.452;2022-11-15T06:43:13;35.17;;;15.93;;
43114;SDS011;28727;50.068;14.452;2022-11-15T06:46:04;26.50;;;14.88;;
43114;SDS011;28727;50.068;14.452;2022-11-15T06:48:55;24.80;;;13.85;;
43114;SDS011;28727;50.068;14.452;2022-11-15T06:51:45;28.55;;;14.82;;
43114;SDS011;28727;50.068;14.452;2022-11-15T06:54:35;36.50;;;16.42;;
43114;SDS011;28727;50.068;14.452;2022-11-15T06:57:28;31.55;;;15.13;;
43114;SDS011;28727;50.068;14.452;2022-11-15T07:00:19;31.30;;;15.52;;
43114;SDS011;28727;50.068;14.452;2022-11-15T07:03:10;31.08;;;16.10;;
43114;SDS011;28727;50.068;14.452;2022-11-15T07:06:00;28.10;;;15.20;;
43114;SDS011;28727;50.068;14.452;2022-11-15T07:08:56;31.30;;;14.88;;
43114;SDS011;28727;50.068;14.452;2022-11-15T07:11:46;32.90;;;15.15;;
43114;SDS011;28727;50.068;14.452;2022-11-15T07:14:36;39.80;;;17.50;;
43114;SDS011;28727;50.068;14.452;2022-11-15T07:17:27;33.13;;;15.60;;
43114;SDS011;28727;50.068;14.452;2022-11-15T07:20:17;35.53;;;16.35;;
43114;SDS011;28727;50.068;14.452;2022-11-15T07:23:07;34.20;;;16.00;;
43114;SDS011;28727;50.068;14.452;2022-11-15T07:25:58;33.60;;;16.33;;
43114;SDS011;28727;50.068;14.452;2022-11-15T07:28:49;31.42;;;16.00;;
43114;SDS011;28727;50.068;14.452;2022-11-15T07:31:39;36.75;;;16.58;;
43114;SDS011;28727;50.068;14.452;2022-11-15T07:34:29;35.33;;;14.75;;
43114;SDS011;28727;50.068;14.452;2022-11-15T07:37:20;35.58;;;16.10;;
43114;SDS011;28727;50.068;14.452;2022-11-15T07:40:10;37.65;;;18.10;;
43114;SDS011;28727;50.068;14.452;2022-11-15T07:43:05;36.03;;;16.90;;
43114;SDS011;28727;50.068;14.452;2022-11-15T07:45:56;29.80;;;15.38;;
43114;SDS011;28727;50.068;14.452;2022-11-15T07:48:48;29.45;;;13.98;;
43114;SDS011;28727;50.068;14.452;2022-11-15T07:51:38;29.10;;;14.95;;
43114;SDS011;28727;50.068;14.452;2022-11-15T07:54:29;27.23;;;13.95;;
43114;SDS011;28727;50.068;14.452;2022-11-15T07:57:19;33.92;;;15.57;;
43114;SDS011;28727;50.068;14.452;2022-11-15T08:00:09;29.00;;;15.02;;
43114;SDS011;28727;50.068;14.452;2022-11-15T08:03:01;27.35;;;14.20;;
43114;SDS011;28727;50.068;14.452;2022-11-15T08:05:59;29.20;;;15.43;;
43114;SDS011;28727;50.068;14.452;2022-11-15T08:08:53;23.47;;;13.43;;
43114;SDS011;28727;50.068;14.452;2022-11-15T08:11:44;28.75;;;14.90;;
43114;SDS011;28727;50.068;14.452;2022-11-15T08:14:34;30.00;;;14.20;;
43114;SDS011;28727;50.068;14.452;2022-11-15T08:17:25;26.77;;;14.43;;
43114;SDS011;28727;50.068;14.452;2022-11-15T08:20:15;27.73;;;14.77;;
43114;SDS011;28727;50.068;14.452;2022-11-15T08:23:06;25.63;;;14.20;;
43114;SDS011;28727;50.068;14.452;2022-11-15T08:26:01;38.90;;;16.13;;
43114;SDS011;28727;50.068;14.452;2022-11-15T08:31:42;27.90;;;13.98;;
43114;SDS011;28727;50.068;14.452;2022-11-15T08:34:33;28.15;;;14.13;;
43114;SDS011;28727;50.068;14.452;2022-11-15T08:37:26;27.75;;;14.88;;
43114;SDS011;28727;50.068;14.452;2022-11-15T08:40:16;28.55;;;14.60;;
43114;SDS011;28727;50.068;14.452;2022-11-15T08:43:11;28.70;;;14.63;;
43114;SDS011;28727;50.068;14.452;2022-11-15T08:46:04;28.42;;;15.40;;
43114;SDS011;28727;50.068;14.452;2022-11-15T08:48:57;28.05;;;14.52;;
43114;SDS011;28727;50.068;14.452;2022-11-15T08:51:47;28.15;;;15.50;;
43114;SDS011;28727;50.068;14.452;2022-11-15T08:54:37;29.92;;;15.15;;
43114;SDS011;28727;50.068;14.452;2022-11-15T08:57:30;27.67;;;14.95;;
43114;SDS011;28727;50.068;14.452;2022-11-15T09:00:21;29.27;;;15.05;;
43114;SDS011;28727;50.068;14.452;2022-11-15T09:03:11;27.42;;;14.82;;
43114;SDS011;28727;50.068;14.452;2022-11-15T09:06:01;33.13;;;16.75;;
43114;SDS011;28727;50.068;14.452;2022-11-15T09:08:53;25.88;;;14.35;;
43114;SDS011;28727;50.068;14.452;2022-11-15T09:11:46;29.83;;;14.85;;
43114;SDS011;28727;50.068;14.452;2022-11-15T09:14:37;30.23;;;16.20;;
43114;SDS011;28727;50.068;14.452;2022-11-15T09:17:27;33.20;;;16.13;;
43114;SDS011;28727;50.068;14.452;2022-11-15T09:20:17;31.85;;;15.70;;
43114;SDS011;28727;50.068;14.452;2022-11-15T09:23:08;28.58;;;15.93;;
43114;SDS011;28727;50.068;14.452;2022-11-15T09:25:59;35.20;;;16.95;;
43114;SDS011;28727;50.068;14.452;2022-11-15T09:28:51;26.60;;;14.73;;
43114;SDS011;28727;50.068;14.452;2022-11-15T09:31:41;27.95;;;15.63;;
43114;SDS011;28727;50.068;14.452;2022-11-15T09:34:31;26.50;;;14.32;;
43114;SDS011;28727;50.068;14.452;2022-11-15T09:37:24;28.23;;;15.32;;
43114;SDS011;28727;50.068;14.452;2022-11-15T09:40:15;27.00;;;15.02;;
43114;SDS011;28727;50.068;14.452;2022-11-15T09:49:56;24.02;;;14.13;;
43114;SDS011;28727;50.068;14.452;2022-11-15T09:52:36;22.67;;;14.07;;
43114;SDS011;28727;50.068;14.452;2022-11-15T09:55:13;26.35;;;15.63;;
43114;SDS011;28727;50.068;14.452;2022-11-15T09:57:58;26.50;;;14.70;;
43114;SDS011;28727;50.068;14.452;2022-11-15T10:00:47;26.70;;;14.75;;
43114;SDS011;28727;50.068;14.452;2022-11-15T10:03:27;25.83;;;14.90;;
43114;SDS011;28727;50.068;14.452;2022-11-15T10:06:02;26.92;;;15.63;;
43114;SDS011;28727;50.068;14.452;2022-11-15T10:11:54;30.85;;;15.65;;
43114;SDS011;28727;50.068;14.452;2022-11-15T10:14:28;26.67;;;15.25;;
43114;SDS011;28727;50.068;14.452;2022-11-15T10:22:40;25.13;;;14.75;;
43114;SDS011;28727;50.068;14.452;2022-11-15T10:25:23;30.48;;;17.25;;
43114;SDS011;28727;50.068;14.452;2022-11-15T10:27:57;27.25;;;16.35;;
43114;SDS011;28727;50.068;14.452;2022-11-15T10:30:51;28.58;;;16.08;;
43114;SDS011;28727;50.068;14.452;2022-11-15T10:33:35;29.35;;;16.70;;
43114;SDS011;28727;50.068;14.452;2022-11-15T10:41:28;28.33;;;16.20;;
43114;SDS011;28727;50.068;14.452;2022-11-15T10:46:38;29.80;;;17.65;;
43114;SDS011;28727;50.068;14.452;2022-11-15T10:49:18;31.35;;;17.90;;
43114;SDS011;28727;50.068;14.452;2022-11-15T10:55:31;35.78;;;18.73;;
43114;SDS011;28727;50.068;14.452;2022-11-15T10:57:48;34.95;;;18.50;;
43114;SDS011;28727;50.068;14.452;2022-11-15T11:00:27;36.60;;;20.25;;
43114;SDS011;28727;50.068;14.452;2022-11-15T11:03:03;35.42;;;18.55;;
43114;SDS011;28727;50.068;14.452;2022-11-15T11:05:39;35.35;;;18.95;;
43114;SDS011;28727;50.068;14.452;2022-11-15T11:11:00;34.85;;;19.85;;
43114;SDS011;28727;50.068;14.452;2022-11-15T11:13:38;35.17;;;18.90;;
43114;SDS011;28727;50.068;14.452;2022-11-15T11:18:48;30.42;;;15.60;;
43114;SDS011;28727;50.068;14.452;2022-11-15T11:24:43;36.25;;;18.65;;
43114;SDS011;28727;50.068;14.452;2022-11-15T11:30:14;39.10;;;20.75;;
43114;SDS011;28727;50.068;14.452;2022-11-15T11:38:51;39.00;;;20.52;;
43114;SDS011;28727;50.068;14.452;2022-11-15T11:41:38;42.78;;;21.52;;
43114;SDS011;28727;50.068;14.452;2022-11-15T11:50:17;45.90;;;22.75;;
43114;SDS011;28727;50.068;14.452;2022-11-15T12:00:54;39.50;;;20.27;;
43114;SDS011;28727;50.068;14.452;2022-11-15T12:03:44;38.50;;;19.73;;
43114;SDS011;28727;50.068;14.452;2022-11-15T12:15:02;40.70;;;21.40;;
43114;SDS011;28727;50.068;14.452;2022-11-15T12:17:46;40.88;;;21.13;;
43114;SDS011;28727;50.068;14.452;2022-11-15T12:20:23;44.22;;;22.20;;
43114;SDS011;28727;50.068;14.452;2022-11-15T12:23:06;50.30;;;24.30;;
43114;SDS011;28727;50.068;14.452;2022-11-15T12:25:52;42.08;;;22.17;;
43114;SDS011;28727;50.068;14.452;2022-11-15T12:28:48;41.42;;;22.00;;
43114;SDS011;28727;50.068;14.452;2022-11-15T12:31:38;42.28;;;21.83;;
43114;SDS011;28727;50.068;14.452;2022-11-15T12:36:51;40.08;;;21.38;;
43114;SDS011;28727;50.068;14.452;2022-11-15T12:40:03;39.97;;;20.70;;
43114;SDS011;28727;50.068;14.452;2022-11-15T12:42:42;40.03;;;21.15;;
43114;SDS011;28727;50.068;14.452;2022-11-15T12:45:31;42.95;;;23.55;;
43114;SDS011;28727;50.068;14.452;2022-11-15T12:50:57;39.35;;;21.70;;
43114;SDS011;28727;50.068;14.452;2022-11-15T12:53:31;45.10;;;22.80;;
43114;SDS011;28727;50.068;14.452;2022-11-15T13:07:02;37.83;;;20.25;;
43114;SDS011;28727;50.068;14.452;2022-11-15T13:17:21;34.05;;;19.98;;
43114;SDS011;28727;50.068;14.452;2022-11-15T13:20:14;36.90;;;20.75;;
43114;SDS011;28727;50.068;14.452;2022-11-15T13:30:49;38.85;;;20.60;;
43114;SDS011;28727;50.068;14.452;2022-11-15T13:33:33;38.08;;;19.42;;
43114;SDS011;28727;50.068;14.452;2022-11-15T13:36:09;36.95;;;19.35;;
43114;SDS011;28727;50.068;14.452;2022-11-15T13:41:33;41.15;;;19.90;;
43114;SDS011;28727;50.068;14.452;2022-11-15T13:44:17;39.30;;;21.38;;
43114;SDS011;28727;50.068;14.452;2022-11-15T13:47:12;37.85;;;19.55;;
43114;SDS011;28727;50.068;14.452;2022-11-15T13:49:48;45.08;;;21.95;;
43114;SDS011;28727;50.068;14.452;2022-11-15T13:52:24;38.97;;;20.40;;
43114;SDS011;28727;50.068;14.452;2022-11-15T13:55:04;38.92;;;21.40;;
43114;SDS011;28727;50.068;14.452;2022-11-15T13:57:43;39.35;;;20.13;;
43114;SDS011;28727;50.068;14.452;2022-11-15T14:03:23;40.13;;;18.85;;
43114;SDS011;28727;50.068;14.452;2022-11-15T14:09:04;42.70;;;19.50;;
43114;SDS011;28727;50.068;14.452;2022-11-15T14:11:54;40.90;;;19.23;;
43114;SDS011;28727;50.068;14.452;2022-11-15T14:17:01;39.92;;;19.98;;
43114;SDS011;28727;50.068;14.452;2022-11-15T14:19:34;39.40;;;18.73;;
43114;SDS011;28727;50.068;14.452;2022-11-15T14:22:12;39.80;;;20.00;;
43114;SDS011;28727;50.068;14.452;2022-11-15T14:25:04;35.90;;;18.58;;
43114;SDS011;28727;50.068;14.452;2022-11-15T14:30:41;33.10;;;18.40;;
43114;SDS011;28727;50.068;14.452;2022-11-15T14:33:18;35.10;;;18.83;;
43114;SDS011;28727;50.068;14.452;2022-11-15T14:35:51;38.88;;;20.08;;
43114;SDS011;28727;50.068;14.452;2022-11-15T14:38:24;37.92;;;20.20;;
43114;SDS011;28727;50.068;14.452;2022-11-15T14:40:58;35.33;;;18.52;;
43114;SDS011;28727;50.068;14.452;2022-11-15T14:43:30;39.08;;;20.25;;
43114;SDS011;28727;50.068;14.452;2022-11-15T14:46:01;39.35;;;19.35;;
43114;SDS011;28727;50.068;14.452;2022-11-15T14:48:33;39.17;;;20.42;;
43114;SDS011;28727;50.068;14.452;2022-11-15T14:51:12;38.35;;;19.00;;
43114;SDS011;28727;50.068;14.452;2022-11-15T14:53:47;38.28;;;19.55;;
43114;SDS011;28727;50.068;14.452;2022-11-15T14:56:19;38.22;;;19.60;;
43114;SDS011;28727;50.068;14.452;2022-11-15T14:58:51;35.85;;;18.48;;
43114;SDS011;28727;50.068;14.452;2022-11-15T15:01:26;38.67;;;19.13;;
43114;SDS011;28727;50.068;14.452;2022-11-15T15:03:58;38.33;;;20.00;;
43114;SDS011;28727;50.068;14.452;2022-11-15T15:06:30;38.65;;;18.92;;
43114;SDS011;28727;50.068;14.452;2022-11-15T15:09:05;34.95;;;17.83;;
43114;SDS011;28727;50.068;14.452;2022-11-15T15:11:39;39.47;;;20.27;;
43114;SDS011;28727;50.068;14.452;2022-11-15T15:14:11;34.42;;;18.75;;
43114;SDS011;28727;50.068;14.452;2022-11-15T15:16:48;33.53;;;18.67;;
43114;SDS011;28727;50.068;14.452;2022-11-15T15:19:22;38.10;;;19.27;;
43114;SDS011;28727;50.068;14.452;2022-11-15T15:21:56;38.63;;;19.70;;
43114;SDS011;28727;50.068;14.452;2022-11-15T15:24:28;37.35;;;17.65;;
43114;SDS011;28727;50.068;14.452;2022-11-15T15:27:03;35.75;;;18.00;;
43114;SDS011;28727;50.068;14.452;2022-11-15T15:29:34;36.08;;;19.10;;
43114;SDS011;28727;50.068;14.452;2022-11-15T15:32:06;36.03;;;18.73;;
43114;SDS011;28727;50.068;14.452;2022-11-15T15:34:42;38.30;;;18.83;;
43114;SDS011;28727;50.068;14.452;2022-11-15T15:37:26;37.20;;;18.52;;
43114;SDS011;28727;50.068;14.452;2022-11-15T15:39:57;36.78;;;18.25;;
43114;SDS011;28727;50.068;14.452;2022-11-15T15:42:30;39.20;;;18.30;;
43114;SDS011;28727;50.068;14.452;2022-11-15T15:45:05;38.03;;;19.48;;
43114;SDS011;28727;50.068;14.452;2022-11-15T15:47:41;38.05;;;19.23;;
43114;SDS011;28727;50.068;14.452;2022-11-15T15:52:53;35.90;;;16.38;;
43114;SDS011;28727;50.068;14.452;2022-11-15T15:55:29;32.28;;;16.58;;
43114;SDS011;28727;50.068;14.452;2022-11-15T15:58:07;34.67;;;18.08;;
43114;SDS011;28727;50.068;14.452;2022-11-15T16:00:41;33.75;;;15.93;;
43114;SDS011;28727;50.068;14.452;2022-11-15T16:03:13;33.10;;;16.95;;
43114;SDS011;28727;50.068;14.452;2022-11-15T16:05:45;34.33;;;17.42;;
43114;SDS011;28727;50.068;14.452;2022-11-15T16:08:23;32.90;;;15.80;;
43114;SDS011;28727;50.068;14.452;2022-11-15T16:10:57;29.60;;;15.07;;
43114;SDS011;28727;50.068;14.452;2022-11-15T16:13:29;33.38;;;16.95;;
43114;SDS011;28727;50.068;14.452;2022-11-15T16:16:01;29.80;;;15.57;;
43114;SDS011;28727;50.068;14.452;2022-11-15T16:18:32;30.38;;;15.45;;
43114;SDS011;28727;50.068;14.452;2022-11-15T16:21:05;29.95;;;14.35;;
43114;SDS011;28727;50.068;14.452;2022-11-15T16:23:37;31.67;;;16.02;;
43114;SDS011;28727;50.068;14.452;2022-11-15T16:26:14;32.58;;;17.15;;
43114;SDS011;28727;50.068;14.452;2022-11-15T16:28:52;28.50;;;14.45;;
43114;SDS011;28727;50.068;14.452;2022-11-15T16:31:27;31.35;;;16.13;;
43114;SDS011;28727;50.068;14.452;2022-11-15T16:33:59;34.03;;;16.92;;
43114;SDS011;28727;50.068;14.452;2022-11-15T16:36:31;33.22;;;17.58;;
43114;SDS011;28727;50.068;14.452;2022-11-15T16:39:09;34.83;;;16.65;;
43114;SDS011;28727;50.068;14.452;2022-11-15T16:41:44;36.25;;;16.10;;
43114;SDS011;28727;50.068;14.452;2022-11-15T16:44:17;29.55;;;15.52;;
43114;SDS011;28727;50.068;14.452;2022-11-15T16:46:49;35.75;;;17.73;;
43114;SDS011;28727;50.068;14.452;2022-11-15T16:49:24;29.30;;;16.13;;
43114;SDS011;28727;50.068;14.452;2022-11-15T16:51:56;30.52;;;15.13;;
43114;SDS011;28727;50.068;14.452;2022-11-15T16:54:27;26.42;;;13.77;;
43114;SDS011;28727;50.068;14.452;2022-11-15T16:56:59;30.20;;;15.43;;
43114;SDS011;28727;50.068;14.452;2022-11-15T16:59:32;25.63;;;13.82;;
43114;SDS011;28727;50.068;14.452;2022-11-15T17:02:11;25.73;;;13.80;;
43114;SDS011;28727;50.068;14.452;2022-11-15T17:04:43;31.08;;;14.18;;
43114;SDS011;28727;50.068;14.452;2022-11-15T17:07:18;28.83;;;13.65;;
43114;SDS011;28727;50.068;14.452;2022-11-15T17:09:50;30.52;;;14.32;;
43114;SDS011;28727;50.068;14.452;2022-11-15T17:12:22;29.17;;;14.50;;
43114;SDS011;28727;50.068;14.452;2022-11-15T17:14:53;32.63;;;17.38;;
43114;SDS011;28727;50.068;14.452;2022-11-15T17:17:25;34.75;;;17.13;;
43114;SDS011;28727;50.068;14.452;2022-11-15T17:19:59;29.88;;;15.95;;
43114;SDS011;28727;50.068;14.452;2022-11-15T17:22:31;33.90;;;16.63;;
43114;SDS011;28727;50.068;14.452;2022-11-15T17:25:03;31.33;;;16.23;;
43114;SDS011;28727;50.068;14.452;2022-11-15T17:27:35;33.85;;;17.60;;
43114;SDS011;28727;50.068;14.452;2022-11-15T17:30:08;33.35;;;17.65;;
43114;SDS011;28727;50.068;14.452;2022-11-15T17:32:42;34.97;;;17.77;;
43114;SDS011;28727;50.068;14.452;2022-11-15T17:35:15;30.73;;;16.10;;
43114;SDS011;28727;50.068;14.452;2022-11-15T17:37:47;30.50;;;16.10;;
43114;SDS011;28727;50.068;14.452;2022-11-15T17:40:19;31.38;;;16.52;;
43114;SDS011;28727;50.068;14.452;2022-11-15T17:42:52;32.92;;;17.02;;
43114;SDS011;28727;50.068;14.452;2022-11-15T17:45:23;36.50;;;18.50;;
43114;SDS011;28727;50.068;14.452;2022-11-15T17:47:55;35.78;;;18.15;;
43114;SDS011;28727;50.068;14.452;2022-11-15T17:50:27;36.83;;;18.88;;
43114;SDS011;28727;50.068;14.452;2022-11-15T17:52:58;33.95;;;18.00;;
43114;SDS011;28727;50.068;14.452;2022-11-15T17:55:31;38.63;;;17.33;;
43114;SDS011;28727;50.068;14.452;2022-11-15T17:58:03;36.13;;;17.15;;
43114;SDS011;28727;50.068;14.452;2022-11-15T18:00:36;34.50;;;16.83;;
43114;SDS011;28727;50.068;14.452;2022-11-15T18:03:08;35.65;;;17.27;;
43114;SDS011;28727;50.068;14.452;2022-11-15T18:05:41;32.55;;;16.48;;
43114;SDS011;28727;50.068;14.452;2022-11-15T18:08:14;39.30;;;17.98;;
43114;SDS011;28727;50.068;14.452;2022-11-15T18:10:48;32.42;;;17.02;;
43114;SDS011;28727;50.068;14.452;2022-11-15T18:13:20;33.05;;;16.58;;
43114;SDS011;28727;50.068;14.452;2022-11-15T18:15:53;32.92;;;16.20;;
43114;SDS011;28727;50.068;14.452;2022-11-15T18:18:26;35.03;;;15.83;;
43114;SDS011;28727;50.068;14.452;2022-11-15T18:21:05;30.95;;;15.80;;
43114;SDS011;28727;50.068;14.452;2022-11-15T18:23:42;29.20;;;15.00;;
43114;SDS011;28727;50.068;14.452;2022-11-15T18:26:16;32.20;;;16.08;;